sensor_id;sensor_type;location;lat;lon;timestamp;pressure;altitude;pressure_sealevel;temperature;humidity
57606;BME280;43430;48.204;11.556;2023-09-19T00:01:41;95738.13;;;16.28;100.00
57606;BME280;43430;48.204;11.556;2023-09-19T00:04:08;95744.53;;;16.32;100.00
57606;BME280;43430;48.204;11.556;2023-09-19T00:06:35;95735.22;;;16.34;100.00
57606;BME280;43430;48.204;11.556;2023-09-19T00:09:00;95741.34;;;16.35;100.00
57606;BME280;43430;48.204;11.556;2023-09-19T00:11:25;95737.06;;;16.39;100.00
57606;BME280;43430;48.204;11.556;2023-09-19T00:13:51;95723.75;;;16.44;100.00
57606;BME280;43430;48.204;11.556;2023-09-19T00:16:17;95733.88;;;16.47;100.00
57606;BME280;43430;48.204;11.556;2023-09-19T00:18:44;95728.56;;;16.47;100.00
57606;BME280;43430;48.204;11.556;2023-09-19T00:21:09;95727.78;;;16.52;100.00
57606;BME280;43430;48.204;11.556;2023-09-19T00:23:35;95729.09;;;16.54;100.00
57606;BME280;43430;48.204;11.556;2023-09-19T00:26:01;95727.50;;;16.53;100.00
57606;BME280;43430;48.204;11.556;2023-09-19T00:28:27;95725.13;;;16.52;100.00
57606;BME280;43430;48.204;11.556;2023-09-19T00:30:52;95735.78;;;16.52;100.00
57606;BME280;43430;48.204;11.556;2023-09-19T00:33:19;95730.44;;;16.52;100.00
57606;BME280;43430;48.204;11.556;2023-09-19T00:35:52;95736.28;;;16.49;100.00
57606;BME280;43430;48.204;11.556;2023-09-19T00:38:17;95739.19;;;16.47;100.00
57606;BME280;43430;48.204;11.556;2023-09-19T00:40:47;95746.13;;;16.43;100.00
57606;BME280;43430;48.204;11.556;2023-09-19T00:43:13;95740.81;;;16.43;100.00
57606;BME280;43430;48.204;11.556;2023-09-19T00:45:38;95750.38;;;16.44;100.00
57606;BME280;43430;48.204;11.556;2023-09-19T00:48:04;95751.44;;;16.38;100.00
57606;BME280;43430;48.204;11.556;2023-09-19T00:50:31;95756.78;;;16.38;100.00
57606;BME280;43430;48.204;11.556;2023-09-19T00:52:57;95768.97;;;16.34;100.00
57606;BME280;43430;48.204;11.556;2023-09-19T00:55:23;95768.19;;;16.33;100.00
57606;BME280;43430;48.204;11.556;2023-09-19T00:57:50;95770.84;;;16.33;100.00
57606;BME280;43430;48.204;11.556;2023-09-19T01:00:16;95768.47;;;16.32;100.00
57606;BME280;43430;48.204;11.556;2023-09-19T01:02:44;95768.22;;;16.38;100.00
57606;BME280;43430;48.204;11.556;2023-09-19T01:05:10;95772.75;;;16.38;100.00
57606;BME280;43430;48.204;11.556;2023-09-19T01:07:35;95775.09;;;16.24;100.00
57606;BME280;43430;48.204;11.556;2023-09-19T01:10:04;95780.16;;;16.26;100.00
57606;BME280;43430;48.204;11.556;2023-09-19T01:15:12;95784.41;;;16.22;100.00
57606;BME280;43430;48.204;11.556;2023-09-19T01:28:20;95806.72;;;16.21;100.00
57606;BME280;43430;48.204;11.556;2023-09-19T01:30:57;95810.97;;;16.11;100.00
57606;BME280;43430;48.204;11.556;2023-09-19T01:33:25;95810.16;;;16.11;100.00
57606;BME280;43430;48.204;11.556;2023-09-19T01:35:51;95812.84;;;16.11;100.00
57606;BME280;43430;48.204;11.556;2023-09-19T01:38:17;95813.38;;;16.23;100.00
57606;BME280;43430;48.204;11.556;2023-09-19T01:40:48;95809.38;;;16.16;100.00
57606;BME280;43430;48.204;11.556;2023-09-19T01:43:26;95814.69;;;16.16;100.00
57606;BME280;43430;48.204;11.556;2023-09-19T01:46:01;95811.53;;;16.19;100.00
57606;BME280;43430;48.204;11.556;2023-09-19T01:51:02;95823.22;;;16.18;100.00
57606;BME280;43430;48.204;11.556;2023-09-19T01:53:44;95826.16;;;16.21;100.00
57606;BME280;43430;48.204;11.556;2023-09-19T01:56:16;95825.63;;;16.19;100.00
57606;BME280;43430;48.204;11.556;2023-09-19T01:58:48;95831.50;;;16.21;100.00
57606;BME280;43430;48.204;11.556;2023-09-19T02:01:16;95822.97;;;16.19;100.00
57606;BME280;43430;48.204;11.556;2023-09-19T02:03:43;95825.88;;;16.18;100.00
57606;BME280;43430;48.204;11.556;2023-09-19T02:06:15;95836.53;;;16.18;100.00
57606;BME280;43430;48.204;11.556;2023-09-19T02:08:40;95825.06;;;16.17;100.00
57606;BME280;43430;48.204;11.556;2023-09-19T02:11:06;95825.63;;;16.14;100.00
57606;BME280;43430;48.204;11.556;2023-09-19T02:13:31;95829.88;;;16.15;100.00
57606;BME280;43430;48.204;11.556;2023-09-19T02:15:57;95831.44;;;16.16;100.00
57606;BME280;43430;48.204;11.556;2023-09-19T02:18:22;95829.03;;;16.09;100.00
57606;BME280;43430;48.204;11.556;2023-09-19T02:20:48;95829.53;;;16.06;100.00
57606;BME280;43430;48.204;11.556;2023-09-19T02:23:13;95828.50;;;16.07;100.00
57606;BME280;43430;48.204;11.556;2023-09-19T02:25:39;95822.69;;;16.10;100.00
57606;BME280;43430;48.204;11.556;2023-09-19T02:28:05;95824.78;;;16.08;100.00
57606;BME280;43430;48.204;11.556;2023-09-19T02:30:31;95821.03;;;16.04;100.00
57606;BME280;43430;48.204;11.556;2023-09-19T02:32:56;95827.69;;;16.02;100.00
57606;BME280;43430;48.204;11.556;2023-09-19T02:35:21;95825.28;;;16.05;100.00
57606;BME280;43430;48.204;11.556;2023-09-19T02:37:47;95825.56;;;16.04;100.00
57606;BME280;43430;48.204;11.556;2023-09-19T02:40:13;95830.59;;;16.00;100.00
57606;BME280;43430;48.204;11.556;2023-09-19T02:42:45;95831.13;;;16.02;100.00
57606;BME280;43430;48.204;11.556;2023-09-19T02:45:13;95827.94;;;16.00;100.00
57606;BME280;43430;48.204;11.556;2023-09-19T02:47:40;95828.47;;;16.02;100.00
57606;BME280;43430;48.204;11.556;2023-09-19T02:50:05;95829.00;;;15.99;100.00
57606;BME280;43430;48.204;11.556;2023-09-19T02:52:31;95829.50;;;15.96;100.00
57606;BME280;43430;48.204;11.556;2023-09-19T02:54:57;95827.41;;;15.98;100.00
57606;BME280;43430;48.204;11.556;2023-09-19T02:57:22;95832.44;;;15.95;100.00
57606;BME280;43430;48.204;11.556;2023-09-19T02:59:49;95838.56;;;15.95;100.00
57606;BME280;43430;48.204;11.556;2023-09-19T03:02:14;95831.66;;;15.99;100.00
57606;BME280;43430;48.204;11.556;2023-09-19T03:04:40;95831.66;;;15.99;100.00
57606;BME280;43430;48.204;11.556;2023-09-19T03:07:06;95832.16;;;15.96;100.00
57606;BME280;43430;48.204;11.556;2023-09-19T03:09:31;95828.75;;;16.01;100.00
57606;BME280;43430;48.204;11.556;2023-09-19T03:11:56;95830.06;;;15.98;100.00
57606;BME280;43430;48.204;11.556;2023-09-19T03:14:22;95826.84;;;15.91;100.00
57606;BME280;43430;48.204;11.556;2023-09-19T03:16:48;95837.47;;;15.91;100.00
57606;BME280;43430;48.204;11.556;2023-09-19T03:19:14;95825.47;;;15.88;100.00
57606;BME280;43430;48.204;11.556;2023-09-19T03:21:40;95829.50;;;15.91;100.00
57606;BME280;43430;48.204;11.556;2023-09-19T03:24:05;95825.47;;;15.88;100.00
57606;BME280;43430;48.204;11.556;2023-09-19T03:26:31;95829.44;;;15.86;100.00
57606;BME280;43430;48.204;11.556;2023-09-19T03:28:56;95825.75;;;15.87;100.00
57606;BME280;43430;48.204;11.556;2023-09-19T03:31:21;95831.59;;;15.84;100.00
57606;BME280;43430;48.204;11.556;2023-09-19T03:33:47;95833.13;;;15.75;100.00
57606;BME280;43430;48.204;11.556;2023-09-19T03:36:13;95829.69;;;15.79;100.00
57606;BME280;43430;48.204;11.556;2023-09-19T03:38:41;95835.25;;;15.73;100.00
57606;BME280;43430;48.204;11.556;2023-09-19T03:41:06;95838.72;;;15.78;100.00
57606;BME280;43430;48.204;11.556;2023-09-19T03:43:32;95838.72;;;15.73;100.00
57606;BME280;43430;48.204;11.556;2023-09-19T03:46:02;95844.31;;;15.77;100.00
57606;BME280;43430;48.204;11.556;2023-09-19T03:48:30;95842.22;;;15.84;100.00
57606;BME280;43430;48.204;11.556;2023-09-19T03:50:55;95845.41;;;15.86;100.00
57606;BME280;43430;48.204;11.556;2023-09-19T03:53:21;95847.03;;;15.87;100.00
57606;BME280;43430;48.204;11.556;2023-09-19T03:55:47;95846.75;;;15.83;100.00
57606;BME280;43430;48.204;11.556;2023-09-19T03:58:12;95854.94;;;15.77;100.00
57606;BME280;43430;48.204;11.556;2023-09-19T04:00:38;95849.59;;;15.72;100.00
57606;BME280;43430;48.204;11.556;2023-09-19T04:03:03;95852.31;;;15.82;100.00
57606;BME280;43430;48.204;11.556;2023-09-19T04:05:31;95853.38;;;15.81;100.00
57606;BME280;43430;48.204;11.556;2023-09-19T04:07:56;95852.28;;;15.77;100.00
57606;BME280;43430;48.204;11.556;2023-09-19T04:10:22;95851.78;;;15.80;100.00
57606;BME280;43430;48.204;11.556;2023-09-19T04:12:54;95852.53;;;15.75;100.00
57606;BME280;43430;48.204;11.556;2023-09-19T04:15:19;95855.19;;;15.75;100.00
57606;BME280;43430;48.204;11.556;2023-09-19T04:17:44;95861.84;;;15.73;100.00
57606;BME280;43430;48.204;11.556;2023-09-19T04:20:13;95866.38;;;15.77;100.00
57606;BME280;43430;48.204;11.556;2023-09-19T04:22:39;95862.41;;;15.80;100.00
57606;BME280;43430;48.204;11.556;2023-09-19T04:25:04;95856.28;;;15.79;100.00
57606;BME280;43430;48.204;11.556;2023-09-19T04:27:31;95871.47;;;15.84;100.00
57606;BME280;43430;48.204;11.556;2023-09-19T04:29:57;95874.13;;;15.89;100.00
57606;BME280;43430;48.204;11.556;2023-09-19T04:32:28;95867.22;;;15.88;100.00
57606;BME280;43430;48.204;11.556;2023-09-19T04:34:53;95876.56;;;15.90;100.00
57606;BME280;43430;48.204;11.556;2023-09-19T04:37:19;95879.22;;;15.96;100.00
57606;BME280;43430;48.204;11.556;2023-09-19T04:39:44;95875.22;;;15.93;100.00
57606;BME280;43430;48.204;11.556;2023-09-19T04:42:12;95875.25;;;15.98;100.00
57606;BME280;43430;48.204;11.556;2023-09-19T04:44:39;95879.00;;;15.97;100.00
57606;BME280;43430;48.204;11.556;2023-09-19T04:47:05;95885.91;;;15.98;100.00
57606;BME280;43430;48.204;11.556;2023-09-19T04:49:31;95886.94;;;15.92;100.00
57606;BME280;43430;48.204;11.556;2023-09-19T04:51:56;95886.97;;;15.97;100.00
57606;BME280;43430;48.204;11.556;2023-09-19T04:54:22;95891.72;;;15.95;100.00
57606;BME280;43430;48.204;11.556;2023-09-19T04:56:48;95896.50;;;15.93;100.00
57606;BME280;43430;48.204;11.556;2023-09-19T04:59:13;95899.19;;;15.98;100.00
57606;BME280;43430;48.204;11.556;2023-09-19T05:01:40;95899.22;;;16.03;100.00
57606;BME280;43430;48.204;11.556;2023-09-19T05:04:06;95902.97;;;16.07;100.00
57606;BME280;43430;48.204;11.556;2023-09-19T05:06:31;95908.25;;;16.02;100.00
57606;BME280;43430;48.204;11.556;2023-09-19T05:09:00;95920.97;;;15.95;100.00
57606;BME280;43430;48.204;11.556;2023-09-19T05:11:25;95924.72;;;15.94;100.00
57606;BME280;43430;48.204;11.556;2023-09-19T05:13:51;95929.47;;;15.87;100.00
57606;BME280;43430;48.204;11.556;2023-09-19T05:16:17;95935.34;;;15.94;100.00
57606;BME280;43430;48.204;11.556;2023-09-19T05:18:43;95937.44;;;15.87;100.00
57606;BME280;43430;48.204;11.556;2023-09-19T05:21:08;95944.28;;;15.78;100.00
57606;BME280;43430;48.204;11.556;2023-09-19T05:23:33;95953.59;;;15.80;100.00
57606;BME280;43430;48.204;11.556;2023-09-19T05:25:58;95949.09;;;15.86;100.00
57606;BME280;43430;48.204;11.556;2023-09-19T05:28:25;95948.59;;;15.89;100.00
57606;BME280;43430;48.204;11.556;2023-09-19T05:30:50;95952.31;;;15.88;100.00
57606;BME280;43430;48.204;11.556;2023-09-19T05:33:16;95948.88;;;15.87;100.00
57606;BME280;43430;48.204;11.556;2023-09-19T05:35:43;95950.78;;;15.97;100.00
57606;BME280;43430;48.204;11.556;2023-09-19T05:38:08;95951.00;;;15.90;100.00
57606;BME280;43430;48.204;11.556;2023-09-19T05:40:34;95948.66;;;15.94;100.00
57606;BME280;43430;48.204;11.556;2023-09-19T05:43:00;95958.22;;;15.95;100.00
57606;BME280;43430;48.204;11.556;2023-09-19T05:45:25;95957.44;;;16.00;100.00
57606;BME280;43430;48.204;11.556;2023-09-19T05:47:51;95956.63;;;15.99;100.00
57606;BME280;43430;48.204;11.556;2023-09-19T05:50:20;95948.66;;;15.99;100.00
57606;BME280;43430;48.204;11.556;2023-09-19T05:52:51;95957.16;;;15.96;100.00
57606;BME280;43430;48.204;11.556;2023-09-19T05:55:17;95962.53;;;16.01;100.00
57606;BME280;43430;48.204;11.556;2023-09-19T05:57:43;95965.34;;;15.89;100.00
57606;BME280;43430;48.204;11.556;2023-09-19T06:00:15;95960.66;;;16.02;100.00
57606;BME280;43430;48.204;11.556;2023-09-19T06:02:43;95964.16;;;16.07;100.00
57606;BME280;43430;48.204;11.556;2023-09-19T06:05:10;95959.63;;;16.08;100.00
57606;BME280;43430;48.204;11.556;2023-09-19T06:07:35;95959.69;;;16.18;100.00
57606;BME280;43430;48.204;11.556;2023-09-19T06:10:05;95958.38;;;16.21;100.00
57606;BME280;43430;48.204;11.556;2023-09-19T06:12:31;95965.53;;;16.20;100.00
57606;BME280;43430;48.204;11.556;2023-09-19T06:14:59;95966.34;;;16.21;100.00
57606;BME280;43430;48.204;11.556;2023-09-19T06:17:25;95974.09;;;16.27;100.00
57606;BME280;43430;48.204;11.556;2023-09-19T06:19:52;95965.59;;;16.30;100.00
57606;BME280;43430;48.204;11.556;2023-09-19T06:22:18;95965.53;;;16.20;100.00
57606;BME280;43430;48.204;11.556;2023-09-19T06:24:44;95960.28;;;16.25;100.00
57606;BME280;43430;48.204;11.556;2023-09-19T06:27:09;95964.84;;;16.35;100.00
57606;BME280;43430;48.204;11.556;2023-09-19T06:29:36;95963.28;;;16.44;100.00
57606;BME280;43430;48.204;11.556;2023-09-19T06:32:09;95961.13;;;16.41;100.00
57606;BME280;43430;48.204;11.556;2023-09-19T06:34:35;95957.91;;;16.34;100.00
57606;BME280;43430;48.204;11.556;2023-09-19T06:37:00;95966.66;;;16.29;100.00
57606;BME280;43430;48.204;11.556;2023-09-19T06:39:25;95968.59;;;16.44;100.00
57606;BME280;43430;48.204;11.556;2023-09-19T06:41:51;95968.84;;;16.37;100.00
57606;BME280;43430;48.204;11.556;2023-09-19T06:44:18;95969.25;;;16.67;100.00
57606;BME280;43430;48.204;11.556;2023-09-19T06:46:47;95973.56;;;16.78;100.00
57606;BME280;43430;48.204;11.556;2023-09-19T06:49:15;95968.84;;;16.95;100.00
57606;BME280;43430;48.204;11.556;2023-09-19T06:51:41;95960.38;;;17.03;100.00
57606;BME280;43430;48.204;11.556;2023-09-19T06:54:09;95964.38;;;17.16;100.00
57606;BME280;43430;48.204;11.556;2023-09-19T06:56:34;95963.06;;;17.29;100.00
57606;BME280;43430;48.204;11.556;2023-09-19T06:58:59;95968.91;;;17.16;100.00
57606;BME280;43430;48.204;11.556;2023-09-19T07:01:25;95962.53;;;17.22;100.00
57606;BME280;43430;48.204;11.556;2023-09-19T07:03:52;95967.81;;;17.17;100.00
57606;BME280;43430;48.204;11.556;2023-09-19T07:06:18;95980.88;;;17.08;100.00
57606;BME280;43430;48.204;11.556;2023-09-19T07:08:43;95977.59;;;16.85;100.00
57606;BME280;43430;48.204;11.556;2023-09-19T07:11:10;95980.56;;;16.99;100.00
57606;BME280;43430;48.204;11.556;2023-09-19T07:13:37;95983.81;;;17.12;100.00
57606;BME280;43430;48.204;11.556;2023-09-19T07:16:03;95988.88;;;17.08;100.00
57606;BME280;43430;48.204;11.556;2023-09-19T07:18:30;95994.47;;;17.12;100.00
57606;BME280;43430;48.204;11.556;2023-09-19T07:20:57;96000.91;;;17.26;100.00
57606;BME280;43430;48.204;11.556;2023-09-19T07:23:26;95987.06;;;17.29;100.00
57606;BME280;43430;48.204;11.556;2023-09-19T07:25:51;96000.13;;;17.36;100.00
57606;BME280;43430;48.204;11.556;2023-09-19T07:28:16;95992.66;;;17.32;100.00
57606;BME280;43430;48.204;11.556;2023-09-19T07:30:42;95988.13;;;17.33;100.00
57606;BME280;43430;48.204;11.556;2023-09-19T07:33:08;95995.31;;;17.32;100.00
57606;BME280;43430;48.204;11.556;2023-09-19T07:35:36;95995.53;;;17.16;100.00
57606;BME280;43430;48.204;11.556;2023-09-19T07:38:03;95996.63;;;17.20;100.00
57606;BME280;43430;48.204;11.556;2023-09-19T07:40:29;95992.88;;;17.11;100.00
57606;BME280;43430;48.204;11.556;2023-09-19T07:42:55;95999.53;;;17.13;100.00
57606;BME280;43430;48.204;11.556;2023-09-19T07:45:21;96000.88;;;17.11;100.00
57606;BME280;43430;48.204;11.556;2023-09-19T07:47:50;96002.50;;;17.22;100.00
57606;BME280;43430;48.204;11.556;2023-09-19T07:50:21;96002.25;;;17.39;100.00
57606;BME280;43430;48.204;11.556;2023-09-19T07:52:49;96005.72;;;17.44;100.00
57606;BME280;43430;48.204;11.556;2023-09-19T07:55:18;96008.69;;;17.68;100.00
57606;BME280;43430;48.204;11.556;2023-09-19T07:57:44;95998.59;;;18.01;100.00
57606;BME280;43430;48.204;11.556;2023-09-19T08:00:10;95994.59;;;18.03;100.00
57606;BME280;43430;48.204;11.556;2023-09-19T08:02:37;95993.50;;;18.15;100.00
57606;BME280;43430;48.204;11.556;2023-09-19T08:05:05;96002.56;;;18.29;100.00
57606;BME280;43430;48.204;11.556;2023-09-19T08:07:32;95988.97;;;18.15;100.00
57606;BME280;43430;48.204;11.556;2023-09-19T08:09:58;95997.53;;;17.97;100.00
57606;BME280;43430;48.204;11.556;2023-09-19T08:12:25;95996.97;;;17.69;100.00
57606;BME280;43430;48.204;11.556;2023-09-19T08:14:50;95999.94;;;17.83;100.00
57606;BME280;43430;48.204;11.556;2023-09-19T08:17:17;96009.25;;;17.86;100.00
57606;BME280;43430;48.204;11.556;2023-09-19T08:19:45;96010.88;;;17.92;100.00
57606;BME280;43430;48.204;11.556;2023-09-19T08:22:11;96007.69;;;17.90;100.00
57606;BME280;43430;48.204;11.556;2023-09-19T08:24:36;96011.66;;;17.92;100.00
57606;BME280;43430;48.204;11.556;2023-09-19T08:27:03;96008.44;;;17.75;100.00
57606;BME280;43430;48.204;11.556;2023-09-19T08:29:30;96008.19;;;17.82;100.00
57606;BME280;43430;48.204;11.556;2023-09-19T08:32:00;96006.59;;;17.86;100.00
57606;BME280;43430;48.204;11.556;2023-09-19T08:34:27;96005.53;;;17.92;100.00
57606;BME280;43430;48.204;11.556;2023-09-19T08:36:53;95999.41;;;18.07;100.00
57606;BME280;43430;48.204;11.556;2023-09-19T08:39:22;95998.84;;;18.10;100.00
57606;BME280;43430;48.204;11.556;2023-09-19T08:41:48;96000.19;;;18.17;100.00
57606;BME280;43430;48.204;11.556;2023-09-19T08:44:16;95995.13;;;18.21;100.00
57606;BME280;43430;48.204;11.556;2023-09-19T08:46:42;95991.91;;;18.24;100.00
57606;BME280;43430;48.204;11.556;2023-09-19T08:49:11;95993.47;;;18.30;100.00
57606;BME280;43430;48.204;11.556;2023-09-19T08:51:41;95999.63;;;18.36;100.00
57606;BME280;43430;48.204;11.556;2023-09-19T08:54:24;95989.72;;;18.41;100.00
57606;BME280;43430;48.204;11.556;2023-09-19T08:56:54;95987.50;;;18.69;100.00
57606;BME280;43430;48.204;11.556;2023-09-19T08:59:22;95985.34;;;18.86;100.00
57606;BME280;43430;48.204;11.556;2023-09-19T09:01:56;95986.59;;;19.04;100.00
57606;BME280;43430;48.204;11.556;2023-09-19T09:04:26;95986.41;;;18.85;100.00
57606;BME280;43430;48.204;11.556;2023-09-19T09:06:53;95992.53;;;18.91;100.00
57606;BME280;43430;48.204;11.556;2023-09-19T09:09:20;95989.59;;;18.82;100.00
57606;BME280;43430;48.204;11.556;2023-09-19T09:11:48;95992.84;;;18.69;100.00
57606;BME280;43430;48.204;11.556;2023-09-19T09:14:16;95985.97;;;18.47;100.00
57606;BME280;43430;48.204;11.556;2023-09-19T09:16:43;95989.13;;;18.60;100.00
57606;BME280;43430;48.204;11.556;2023-09-19T09:19:08;96001.41;;;18.76;100.00
57606;BME280;43430;48.204;11.556;2023-09-19T09:21:34;95988.59;;;18.73;100.00
57606;BME280;43430;48.204;11.556;2023-09-19T09:26:46;95976.84;;;18.64;100.00
57606;BME280;43430;48.204;11.556;2023-09-19T09:29:12;95985.13;;;18.62;100.00
57606;BME280;43430;48.204;11.556;2023-09-19T09:31:38;95985.13;;;18.72;100.00
57606;BME280;43430;48.204;11.556;2023-09-19T09:34:04;95978.13;;;18.87;100.00
57606;BME280;43430;48.204;11.556;2023-09-19T09:36:35;95974.56;;;19.07;100.00
57606;BME280;43430;48.204;11.556;2023-09-19T09:39:01;95968.50;;;19.35;100.00
57606;BME280;43430;48.204;11.556;2023-09-19T09:41:40;95966.13;;;19.73;100.00
57606;BME280;43430;48.204;11.556;2023-09-19T09:44:27;95953.38;;;19.94;100.00
57606;BME280;43430;48.204;11.556;2023-09-19T09:46:57;95952.81;;;19.97;100.00
57606;BME280;43430;48.204;11.556;2023-09-19T09:49:47;95955.78;;;19.56;100.00
57606;BME280;43430;48.204;11.556;2023-09-19T09:52:20;95971.00;;;19.21;100.00
57606;BME280;43430;48.204;11.556;2023-09-19T09:55:04;95970.81;;;19.03;100.00
57606;BME280;43430;48.204;11.556;2023-09-19T09:57:35;95971.16;;;18.96;100.00
57606;BME280;43430;48.204;11.556;2023-09-19T10:00:01;95972.94;;;19.06;100.00
57606;BME280;43430;48.204;11.556;2023-09-19T10:02:36;95965.59;;;19.27;100.00
57606;BME280;43430;48.204;11.556;2023-09-19T10:05:12;95970.50;;;19.59;100.00
57606;BME280;43430;48.204;11.556;2023-09-19T10:07:53;95969.66;;;19.68;100.00
57606;BME280;43430;48.204;11.556;2023-09-19T10:10:35;95964.97;;;19.45;100.00
57606;BME280;43430;48.204;11.556;2023-09-19T10:13:10;95969.06;;;19.72;100.00
57606;BME280;43430;48.204;11.556;2023-09-19T10:15:40;95975.91;;;19.88;100.00
57606;BME280;43430;48.204;11.556;2023-09-19T10:18:11;95976.22;;;19.81;100.00
57606;BME280;43430;48.204;11.556;2023-09-19T10:20:42;95971.41;;;19.78;100.00
57606;BME280;43430;48.204;11.556;2023-09-19T10:23:10;95971.75;;;19.72;100.00
57606;BME280;43430;48.204;11.556;2023-09-19T10:25:38;95965.28;;;19.78;100.00
57606;BME280;43430;48.204;11.556;2023-09-19T10:28:08;95974.47;;;19.96;100.00
57606;BME280;43430;48.204;11.556;2023-09-19T10:30:43;95970.66;;;20.07;100.00
57606;BME280;43430;48.204;11.556;2023-09-19T10:33:19;95970.00;;;20.20;100.00
57606;BME280;43430;48.204;11.556;2023-09-19T10:35:46;95966.00;;;20.18;100.00
57606;BME280;43430;48.204;11.556;2023-09-19T10:38:17;95968.41;;;20.43;100.00
57606;BME280;43430;48.204;11.556;2023-09-19T10:40:44;95969.72;;;20.46;100.00
57606;BME280;43430;48.204;11.556;2023-09-19T10:43:15;95960.38;;;20.43;100.00
57606;BME280;43430;48.204;11.556;2023-09-19T10:45:47;95970.91;;;20.34;100.00
57606;BME280;43430;48.204;11.556;2023-09-19T10:48:22;95973.03;;;20.37;100.00
57606;BME280;43430;48.204;11.556;2023-09-19T10:53:28;95973.50;;;20.45;100.00
57606;BME280;43430;48.204;11.556;2023-09-19T10:55:56;95958.25;;;20.40;100.00
57606;BME280;43430;48.204;11.556;2023-09-19T10:58:28;95958.50;;;20.44;100.00
57606;BME280;43430;48.204;11.556;2023-09-19T11:00:59;95967.81;;;20.22;100.00
57606;BME280;43430;48.204;11.556;2023-09-19T11:03:31;95968.22;;;20.10;100.00
57606;BME280;43430;48.204;11.556;2023-09-19T11:06:05;95963.13;;;20.09;100.00
57606;BME280;43430;48.204;11.556;2023-09-19T11:11:45;95965.06;;;20.03;100.00
57606;BME280;43430;48.204;11.556;2023-09-19T11:23:16;95954.88;;;20.58;100.00
57606;BME280;43430;48.204;11.556;2023-09-19T11:25:42;95955.69;;;20.59;100.00
57606;BME280;43430;48.204;11.556;2023-09-19T11:30:49;95959.31;;;20.15;100.00
57606;BME280;43430;48.204;11.556;2023-09-19T11:33:16;95957.22;;;20.12;100.00
57606;BME280;43430;48.204;11.556;2023-09-19T11:46:16;95942.50;;;20.62;100.00
57606;BME280;43430;48.204;11.556;2023-09-19T11:48:46;95958.84;;;20.61;100.00
57606;BME280;43430;48.204;11.556;2023-09-19T11:53:51;95950.81;;;20.61;100.00
57606;BME280;43430;48.204;11.556;2023-09-19T11:56:18;95956.59;;;20.73;100.00
57606;BME280;43430;48.204;11.556;2023-09-19T11:58:50;95952.66;;;20.66;100.00
57606;BME280;43430;48.204;11.556;2023-09-19T12:01:53;95960.09;;;20.45;100.00
57606;BME280;43430;48.204;11.556;2023-09-19T12:04:11;95955.88;;;20.38;100.00
57606;BME280;43430;48.204;11.556;2023-09-19T12:06:37;95955.34;;;20.36;100.00
57606;BME280;43430;48.204;11.556;2023-09-19T12:09:03;95950.41;;;20.49;100.00
57606;BME280;43430;48.204;11.556;2023-09-19T12:11:32;95947.47;;;20.50;100.00
57606;BME280;43430;48.204;11.556;2023-09-19T12:13:58;95940.84;;;20.67;100.00
57606;BME280;43430;48.204;11.556;2023-09-19T12:16:25;95942.84;;;20.80;100.00
57606;BME280;43430;48.204;11.556;2023-09-19T12:18:51;95939.84;;;20.62;100.00
57606;BME280;43430;48.204;11.556;2023-09-19T12:21:26;95937.88;;;20.44;100.00
57606;BME280;43430;48.204;11.556;2023-09-19T12:26:29;95949.50;;;20.34;100.00
57606;BME280;43430;48.204;11.556;2023-09-19T12:28:55;95945.03;;;20.25;100.00
57606;BME280;43430;48.204;11.556;2023-09-19T12:31:22;95946.50;;;20.12;100.00
57606;BME280;43430;48.204;11.556;2023-09-19T12:33:53;95951.72;;;20.27;100.00
57606;BME280;43430;48.204;11.556;2023-09-19T12:36:19;95939.69;;;20.25;100.00
57606;BME280;43430;48.204;11.556;2023-09-19T12:38:47;95944.84;;;20.16;100.00
57606;BME280;43430;48.204;11.556;2023-09-19T12:41:14;95944.84;;;20.16;100.00
57606;BME280;43430;48.204;11.556;2023-09-19T12:43:39;95950.31;;;20.06;100.00
57606;BME280;43430;48.204;11.556;2023-09-19T12:46:07;95947.44;;;19.97;100.00
57606;BME280;43430;48.204;11.556;2023-09-19T12:48:32;95948.31;;;19.92;100.00
57606;BME280;43430;48.204;11.556;2023-09-19T12:51:03;95956.44;;;19.82;100.00
57606;BME280;43430;48.204;11.556;2023-09-19T12:53:39;95950.84;;;19.79;100.00
57606;BME280;43430;48.204;11.556;2023-09-19T12:56:12;95956.03;;;19.60;100.00
57606;BME280;43430;48.204;11.556;2023-09-19T13:01:25;95962.38;;;19.30;100.00
57606;BME280;43430;48.204;11.556;2023-09-19T13:04:13;95962.00;;;19.47;100.00
57606;BME280;43430;48.204;11.556;2023-09-19T13:06:40;95957.63;;;19.61;100.00
57606;BME280;43430;48.204;11.556;2023-09-19T13:09:10;95946.28;;;19.79;100.00
57606;BME280;43430;48.204;11.556;2023-09-19T13:11:38;95949.91;;;19.94;100.00
57606;BME280;43430;48.204;11.556;2023-09-19T13:14:13;95942.50;;;20.09;100.00
57606;BME280;43430;48.204;11.556;2023-09-19T13:16:54;95940.41;;;20.06;100.00
57606;BME280;43430;48.204;11.556;2023-09-19T13:22:50;95930.97;;;20.14;100.00
57606;BME280;43430;48.204;11.556;2023-09-19T13:24:54;95936.91;;;20.06;100.00
57606;BME280;43430;48.204;11.556;2023-09-19T13:27:19;95930.34;;;20.22;100.00
57606;BME280;43430;48.204;11.556;2023-09-19T13:29:44;95931.25;;;20.36;100.00
57606;BME280;43430;48.204;11.556;2023-09-19T13:32:10;95931.91;;;20.23;100.00
57606;BME280;43430;48.204;11.556;2023-09-19T13:34:36;95924.66;;;20.29;100.00
57606;BME280;43430;48.204;11.556;2023-09-19T13:37:02;95932.53;;;20.44;100.00
57606;BME280;43430;48.204;11.556;2023-09-19T13:39:28;95922.41;;;20.65;100.00
57606;BME280;43430;48.204;11.556;2023-09-19T13:41:54;95917.75;;;20.71;100.00